Time;durP1;ratioP1;P1;durP2;ratioP2;P2;SDS_P1;SDS_P2;PMS_P1;PMS_P2;Temp;Humidity;BMP_temperature;BMP_pressure;BME280_temperature;BME280_humidity;BME280_pressure;Samples;Min_cycle;Max_cycle;Signal;HPM_P1;HPM_P2
2023/02/06 00:00:18;;;;;;;0.40;0.40;;;2.90;99.90;;;;;;5056298;28;20173;-70
2023/02/06 00:02:44;;;;;;;0.35;0.35;;;2.80;99.90;;;;;;5055867;28;20245;-70
2023/02/06 00:05:10;;;;;;;0.40;0.40;;;2.80;99.90;;;;;;5056225;28;20170;-71
2023/02/06 00:07:35;;;;;;;0.40;0.40;;;2.90;99.90;;;;;;5056137;28;20503;-70
2023/02/06 00:10:01;;;;;;;1.10;0.97;;;2.90;99.90;;;;;;5055989;28;20175;-70
2023/02/06 00:12:26;;;;;;;0.40;0.40;;;2.90;99.90;;;;;;5055807;28;20199;-70
2023/02/06 00:14:52;;;;;;;0.40;0.40;;;3.00;99.90;;;;;;5055929;28;20158;-71
2023/02/06 00:17:18;;;;;;;0.40;0.40;;;3.10;99.90;;;;;;5055407;28;20163;-72
2023/02/06 00:19:43;;;;;;;0.67;0.67;;;3.10;99.90;;;;;;5056055;28;20695;-71
2023/02/06 00:22:09;;;;;;;0.50;0.50;;;3.10;99.90;;;;;;5056090;28;20183;-70
2023/02/06 00:24:35;;;;;;;0.33;0.33;;;2.90;99.90;;;;;;5055951;28;20198;-72
2023/02/06 00:27:01;;;;;;;0.40;0.40;;;2.80;99.90;;;;;;5056129;28;20737;-71
2023/02/06 00:29:26;;;;;;;0.30;0.30;;;2.80;99.90;;;;;;5055825;28;20427;-72
2023/02/06 00:31:52;;;;;;;0.50;0.50;;;2.70;99.90;;;;;;5055334;28;20429;-71
2023/02/06 00:34:17;;;;;;;0.40;0.40;;;2.70;99.90;;;;;;5055761;28;20249;-70
2023/02/06 00:36:43;;;;;;;0.40;0.40;;;2.80;99.90;;;;;;5055886;28;20173;-71
2023/02/06 00:39:09;;;;;;;0.40;0.40;;;2.80;99.90;;;;;;5055775;28;20231;-72
2023/02/06 00:41:34;;;;;;;0.33;0.33;;;2.80;99.90;;;;;;5055541;28;20193;-71
2023/02/06 00:44:00;;;;;;;0.50;0.50;;;2.80;99.90;;;;;;5055272;28;20198;-72
2023/02/06 00:46:25;;;;;;;3.90;0.83;;;3.00;99.90;;;;;;5055502;28;20277;-72
2023/02/06 00:48:51;;;;;;;0.40;0.40;;;3.10;99.90;;;;;;5055236;28;20163;-71
2023/02/06 00:51:17;;;;;;;0.30;0.30;;;3.10;99.90;;;;;;5055202;28;20248;-71
2023/02/06 00:53:42;;;;;;;1.10;1.10;;;3.10;99.90;;;;;;5055000;28;20174;-71
2023/02/06 00:56:08;;;;;;;0.40;0.40;;;3.20;99.90;;;;;;5055333;28;20177;-70
2023/02/06 00:58:33;;;;;;;0.60;0.60;;;3.20;99.90;;;;;;5053928;28;20591;-72
2023/02/06 01:00:59;;;;;;;1.20;0.90;;;3.20;99.90;;;;;;5053303;28;20190;-72
2023/02/06 01:03:25;;;;;;;0.60;0.60;;;3.10;99.90;;;;;;5053971;28;20200;-71
2023/02/06 01:05:51;;;;;;;0.70;0.70;;;3.10;99.90;;;;;;5054923;28;20690;-71
2023/02/06 01:08:16;;;;;;;0.40;0.40;;;3.00;99.90;;;;;;5054887;28;20162;-71
2023/02/06 01:10:43;;;;;;;5.20;1.83;;;3.10;99.90;;;;;;5055036;28;20464;-71
2023/02/06 01:13:09;;;;;;;1.25;1.25;;;3.20;99.90;;;;;;5054945;28;20175;-70
2023/02/06 01:15:36;;;;;;;0.40;0.40;;;3.10;99.90;;;;;;5054858;28;20180;-71
2023/02/06 01:18:01;;;;;;;0.40;0.40;;;3.00;99.90;;;;;;5054867;28;20216;-72
2023/02/06 01:20:27;;;;;;;0.40;0.40;;;2.90;99.90;;;;;;5054686;28;20181;-70
2023/02/06 01:22:53;;;;;;;0.40;0.40;;;2.90;99.90;;;;;;5054468;28;20235;-72
2023/02/06 01:25:19;;;;;;;0.40;0.40;;;3.00;99.90;;;;;;5054762;28;20167;-72
2023/02/06 01:27:44;;;;;;;0.40;0.40;;;2.90;99.90;;;;;;5054807;28;20654;-72
2023/02/06 01:30:10;;;;;;;0.50;0.40;;;3.00;99.90;;;;;;5053702;28;20257;-72
2023/02/06 01:32:38;;;;;;;0.30;0.30;;;2.90;99.90;;;;;;5054175;28;20198;-71
2023/02/06 01:35:05;;;;;;;0.40;0.40;;;2.80;99.90;;;;;;5054369;28;20197;-72
2023/02/06 01:37:31;;;;;;;0.40;0.40;;;2.80;99.90;;;;;;5054439;28;20190;-71
2023/02/06 01:39:57;;;;;;;0.40;0.40;;;2.80;99.90;;;;;;5054454;28;20180;-71
2023/02/06 01:42:23;;;;;;;0.40;0.40;;;2.70;99.90;;;;;;5054115;28;20432;-70
2023/02/06 01:44:48;;;;;;;0.30;0.30;;;2.70;99.90;;;;;;5054412;28;20201;-72
2023/02/06 01:47:14;;;;;;;0.30;0.30;;;2.70;99.90;;;;;;5054354;28;20401;-72
2023/02/06 01:49:49;;;;;;;0.40;0.40;;;2.70;99.90;;;;;;5054177;28;20177;-71
2023/02/06 01:52:22;;;;;;;0.40;0.40;;;2.70;99.90;;;;;;5053878;28;20672;-72
2023/02/06 01:54:52;;;;;;;0.40;0.40;;;2.40;99.90;;;;;;5054234;28;20190;-72
2023/02/06 01:57:20;;;;;;;0.73;0.73;;;2.30;99.90;;;;;;5054262;28;20170;-71
2023/02/06 01:59:51;;;;;;;0.40;0.40;;;2.30;99.90;;;;;;5054172;28;20236;-71
2023/02/06 02:02:17;;;;;;;0.40;0.40;;;2.30;99.90;;;;;;5053990;28;20189;-71
2023/02/06 02:04:43;;;;;;;0.50;0.50;;;2.20;99.90;;;;;;5054221;28;20236;-71
2023/02/06 02:07:18;;;;;;;3.17;1.05;;;2.30;99.90;;;;;;5053954;28;20165;-72
2023/02/06 02:09:43;;;;;;;0.30;0.30;;;2.30;99.90;;;;;;5054017;28;20169;-71
2023/02/06 02:12:09;;;;;;;0.30;0.30;;;2.30;99.90;;;;;;5053582;28;20525;-72
2023/02/06 02:14:36;;;;;;;0.40;0.40;;;2.20;99.90;;;;;;5053700;28;20232;-72
2023/02/06 02:17:10;;;;;;;0.95;0.95;;;2.10;99.90;;;;;;5053906;28;20263;-70
2023/02/06 02:20:15;;;;;;;0.43;0.43;;;2.20;99.90;;;;;;5053929;28;20183;-72
2023/02/06 02:23:05;;;;;;;0.30;0.30;;;2.10;99.90;;;;;;5053239;28;20271;-70
2023/02/06 02:25:39;;;;;;;0.30;0.30;;;2.00;99.90;;;;;;5053651;28;20173;-71
2023/02/06 02:28:17;;;;;;;0.40;0.40;;;2.00;99.90;;;;;;5053628;28;20251;-71
2023/02/06 02:30:57;;;;;;;0.40;0.40;;;2.00;99.90;;;;;;5053560;28;20185;-71
2023/02/06 02:33:54;;;;;;;0.40;0.40;;;2.10;99.90;;;;;;5053445;28;20169;-71
2023/02/06 02:36:45;;;;;;;0.40;0.40;;;2.00;99.90;;;;;;5051551;28;20194;-71
2023/02/06 02:39:23;;;;;;;0.30;0.30;;;2.00;99.90;;;;;;5053463;28;20267;-71
2023/02/06 02:41:52;;;;;;;0.35;0.35;;;2.10;99.90;;;;;;5052968;28;20194;-71
2023/02/06 02:44:50;;;;;;;0.38;0.38;;;2.00;99.90;;;;;;5053674;28;20197;-72
2023/02/06 02:47:19;;;;;;;1.40;1.30;;;1.70;99.90;;;;;;5053116;28;20185;-72
2023/02/06 02:49:46;;;;;;;0.50;0.50;;;1.60;99.90;;;;;;5053434;28;20178;-71
2023/02/06 02:52:12;;;;;;;0.47;0.47;;;1.60;99.90;;;;;;5052672;28;20190;-71
2023/02/06 02:54:38;;;;;;;0.50;0.50;;;1.70;99.90;;;;;;5053197;28;20306;-71
2023/02/06 02:57:24;;;;;;;0.40;0.40;;;1.80;99.90;;;;;;5053305;28;20268;-70
2023/02/06 02:59:51;;;;;;;0.40;0.40;;;2.00;99.90;;;;;;5053417;28;20181;-72
2023/02/06 03:02:24;;;;;;;0.50;0.50;;;2.10;99.90;;;;;;5052864;28;20206;-72
2023/02/06 03:05:03;;;;;;;0.40;0.40;;;2.20;99.90;;;;;;5053303;28;20228;-72
2023/02/06 03:07:47;;;;;;;0.32;0.32;;;2.20;99.90;;;;;;5053293;28;20174;-72
2023/02/06 03:10:31;;;;;;;0.88;0.88;;;2.20;99.90;;;;;;5051826;28;20626;-72
2023/02/06 03:13:18;;;;;;;2.35;1.75;;;2.20;99.90;;;;;;5053000;28;20567;-70
2023/02/06 03:16:08;;;;;;;0.50;0.50;;;2.30;99.90;;;;;;5053261;28;20170;-71
2023/02/06 03:18:45;;;;;;;1.08;0.98;;;2.20;99.90;;;;;;5053348;28;20640;-72
2023/02/06 03:21:15;;;;;;;0.40;0.40;;;2.30;99.90;;;;;;5053078;28;20200;-71
2023/02/06 03:23:42;;;;;;;1.13;1.13;;;2.30;99.90;;;;;;5052992;28;20205;-72
2023/02/06 03:26:12;;;;;;;0.40;0.40;;;2.30;99.90;;;;;;5052912;28;20171;-71
2023/02/06 03:28:43;;;;;;;0.40;0.40;;;2.20;99.90;;;;;;5053020;28;20173;-70
2023/02/06 03:31:14;;;;;;;0.30;0.30;;;2.10;99.90;;;;;;5052850;28;20284;-71
2023/02/06 03:33:52;;;;;;;0.93;0.93;;;2.10;99.90;;;;;;5052742;28;20174;-70
2023/02/06 03:36:18;;;;;;;0.70;0.70;;;2.00;99.90;;;;;;5053087;28;20178;-71
2023/02/06 03:38:47;;;;;;;0.30;0.30;;;1.90;99.90;;;;;;5053059;28;20188;-72
2023/02/06 03:41:14;;;;;;;0.40;0.40;;;1.90;99.90;;;;;;5052870;28;20236;-72
2023/02/06 03:43:44;;;;;;;0.30;0.30;;;1.70;99.90;;;;;;5052697;28;20224;-72
2023/02/06 03:46:12;;;;;;;0.30;0.30;;;1.60;99.90;;;;;;5052933;28;20243;-70
2023/02/06 03:48:46;;;;;;;0.30;0.30;;;1.50;99.90;;;;;;5052747;28;20170;-71
2023/02/06 03:51:21;;;;;;;0.38;0.38;;;1.50;99.90;;;;;;5052847;28;20189;-72
2023/02/06 03:53:50;;;;;;;0.40;0.40;;;1.50;99.90;;;;;;5055216;28;20172;-72
2023/02/06 03:56:24;;;;;;;2.08;1.98;;;1.50;99.90;;;;;;5056525;28;20235;-71
2023/02/06 03:58:49;;;;;;;0.88;0.88;;;1.40;99.90;;;;;;5056261;28;20234;-72
2023/02/06 04:01:16;;;;;;;0.30;0.30;;;1.50;99.90;;;;;;5056337;28;20223;-71
2023/02/06 04:03:42;;;;;;;0.45;0.40;;;1.50;99.90;;;;;;5055979;28;20207;-70
2023/02/06 04:06:07;;;;;;;0.43;0.43;;;1.40;99.90;;;;;;5056205;28;20206;-71
2023/02/06 04:08:33;;;;;;;0.30;0.30;;;1.20;99.90;;;;;;5056241;28;20164;-71
2023/02/06 04:10:58;;;;;;;0.50;0.50;;;1.20;99.90;;;;;;5056091;28;20551;-71
2023/02/06 04:13:24;;;;;;;0.30;0.30;;;1.20;99.90;;;;;;5055908;28;20176;-70
2023/02/06 04:15:50;;;;;;;0.40;0.40;;;1.10;99.90;;;;;;5055940;28;20175;-72
2023/02/06 04:18:15;;;;;;;0.30;0.30;;;1.10;99.90;;;;;;5056012;28;20175;-71
2023/02/06 04:20:41;;;;;;;0.40;0.40;;;1.00;99.90;;;;;;5055914;28;20191;-72
2023/02/06 04:23:07;;;;;;;0.73;0.73;;;0.90;99.90;;;;;;5055710;28;20196;-72
2023/02/06 04:25:33;;;;;;;0.40;0.40;;;0.90;99.90;;;;;;5055888;28;20171;-71
2023/02/06 04:27:59;;;;;;;0.65;0.65;;;0.80;99.90;;;;;;5055746;28;20179;-70
2023/02/06 04:30:24;;;;;;;0.70;0.70;;;0.80;99.90;;;;;;5054317;28;20179;-72
2023/02/06 04:32:50;;;;;;;0.40;0.40;;;0.80;99.90;;;;;;5055506;28;20167;-72
2023/02/06 04:35:16;;;;;;;0.30;0.30;;;0.90;99.90;;;;;;5055635;28;20178;-71
2023/02/06 04:37:41;;;;;;;0.40;0.40;;;0.80;99.90;;;;;;5055396;28;20214;-71
2023/02/06 04:40:07;;;;;;;0.40;0.40;;;0.60;99.90;;;;;;5055623;28;20167;-71
2023/02/06 04:42:33;;;;;;;0.40;0.40;;;0.50;99.90;;;;;;5055231;28;20533;-71
2023/02/06 04:44:58;;;;;;;0.30;0.30;;;0.60;99.90;;;;;;5055790;28;20170;-72
2023/02/06 04:47:24;;;;;;;0.30;0.30;;;0.50;99.90;;;;;;5055440;28;20162;-70
2023/02/06 04:49:50;;;;;;;0.77;0.77;;;0.40;99.90;;;;;;5055439;28;20683;-70
2023/02/06 04:52:15;;;;;;;0.80;0.80;;;0.30;99.90;;;;;;5055063;28;20187;-71
2023/02/06 04:54:41;;;;;;;0.60;0.60;;;0.40;99.90;;;;;;5055414;28;20171;-71
2023/02/06 04:57:06;;;;;;;0.40;0.40;;;0.40;99.90;;;;;;5054979;28;20206;-70
2023/02/06 04:59:32;;;;;;;0.40;0.40;;;0.60;99.90;;;;;;5054843;28;20258;-72
2023/02/06 05:01:58;;;;;;;0.50;0.50;;;0.60;99.90;;;;;;5054677;28;20194;-71
2023/02/06 05:04:23;;;;;;;0.40;0.40;;;0.60;99.90;;;;;;5054888;28;20732;-72
2023/02/06 05:06:49;;;;;;;0.77;0.63;;;0.50;99.90;;;;;;5055148;28;20182;-72
2023/02/06 05:09:14;;;;;;;0.63;0.63;;;0.50;99.90;;;;;;5055078;28;20540;-70
2023/02/06 05:11:40;;;;;;;0.30;0.30;;;0.60;99.90;;;;;;5054914;28;20261;-72
2023/02/06 05:14:06;;;;;;;0.60;0.60;;;0.70;99.90;;;;;;5055286;28;20183;-71
2023/02/06 05:16:31;;;;;;;0.37;0.37;;;0.80;99.90;;;;;;5054901;28;20180;-70
2023/02/06 05:18:57;;;;;;;0.40;0.40;;;0.90;99.90;;;;;;5054918;28;20548;-71
2023/02/06 05:21:23;;;;;;;0.40;0.40;;;1.00;99.90;;;;;;5054926;28;20191;-71
2023/02/06 05:23:49;;;;;;;0.30;0.30;;;1.00;99.90;;;;;;5054509;28;20199;-71
2023/02/06 05:26:15;;;;;;;0.40;0.40;;;1.00;99.90;;;;;;5054632;28;20174;-72
2023/02/06 05:28:40;;;;;;;0.40;0.40;;;1.20;99.90;;;;;;5054923;28;20539;-71
2023/02/06 05:31:06;;;;;;;0.50;0.50;;;1.10;99.90;;;;;;5054618;28;20243;-72
2023/02/06 05:33:32;;;;;;;0.30;0.30;;;1.10;99.90;;;;;;5054462;28;20243;-71
2023/02/06 05:36:06;;;;;;;0.40;0.40;;;1.20;99.90;;;;;;5054588;28;20163;-72
2023/02/06 05:38:32;;;;;;;0.55;0.55;;;1.20;99.90;;;;;;5054049;28;20274;-70
2023/02/06 05:40:58;;;;;;;0.93;0.93;;;1.20;99.90;;;;;;5054254;28;20199;-70
2023/02/06 05:43:24;;;;;;;0.53;0.53;;;1.20;99.90;;;;;;5054071;28;20619;-71
2023/02/06 05:45:50;;;;;;;0.30;0.30;;;1.30;99.90;;;;;;5054120;28;20247;-70
2023/02/06 05:48:15;;;;;;;0.30;0.30;;;1.30;99.90;;;;;;5054071;28;20197;-70
2023/02/06 05:50:41;;;;;;;0.50;0.50;;;1.30;99.90;;;;;;5054187;28;20687;-71
2023/02/06 05:53:07;;;;;;;0.30;0.30;;;1.40;99.90;;;;;;5053876;28;20539;-70
2023/02/06 05:55:32;;;;;;;0.30;0.30;;;1.30;99.90;;;;;;5054032;28;20579;-70
2023/02/06 05:57:58;;;;;;;0.30;0.30;;;1.00;99.90;;;;;;5054062;28;20176;-72
2023/02/06 06:00:23;;;;;;;0.43;0.43;;;1.00;99.90;;;;;;5053915;28;20652;-70
2023/02/06 06:02:49;;;;;;;0.30;0.30;;;1.10;99.90;;;;;;5052582;28;20175;-71
2023/02/06 06:05:15;;;;;;;0.37;0.37;;;1.20;99.90;;;;;;5054066;28;20625;-71
2023/02/06 06:07:40;;;;;;;0.30;0.30;;;1.10;99.90;;;;;;5053953;28;20162;-72
2023/02/06 06:10:07;;;;;;;0.30;0.30;;;1.10;99.90;;;;;;5054015;28;20760;-71
2023/02/06 06:12:32;;;;;;;0.30;0.30;;;1.10;99.90;;;;;;5053796;28;20189;-71
2023/02/06 06:14:58;;;;;;;0.30;0.30;;;1.00;99.90;;;;;;5053369;28;20183;-71
2023/02/06 06:17:24;;;;;;;1.03;1.03;;;1.00;99.90;;;;;;5053457;28;20229;-72
2023/02/06 06:19:49;;;;;;;0.70;0.70;;;1.00;99.90;;;;;;5053858;28;20200;-71
2023/02/06 06:22:15;;;;;;;0.30;0.30;;;1.00;99.90;;;;;;5053267;28;20201;-72
2023/02/06 06:24:40;;;;;;;0.40;0.40;;;1.00;99.90;;;;;;5053540;28;20661;-71
2023/02/06 06:27:09;;;;;;;0.30;0.30;;;1.00;99.90;;;;;;5053720;28;20637;-71
2023/02/06 06:29:35;;;;;;;0.40;0.40;;;1.00;99.90;;;;;;5053776;28;20215;-71
2023/02/06 06:32:01;;;;;;;0.40;0.40;;;0.90;99.90;;;;;;5053259;28;20188;-71
2023/02/06 06:34:27;;;;;;;0.32;0.32;;;0.80;99.90;;;;;;5053612;28;20641;-71
2023/02/06 06:36:52;;;;;;;0.30;0.30;;;0.70;99.90;;;;;;5053471;28;20195;-71
2023/02/06 06:39:18;;;;;;;0.33;0.33;;;0.70;99.90;;;;;;5053688;28;20262;-70
2023/02/06 06:41:43;;;;;;;0.30;0.30;;;0.50;99.90;;;;;;5053154;28;20195;-71
2023/02/06 06:44:09;;;;;;;0.30;0.30;;;0.40;99.90;;;;;;5053383;28;20609;-70
2023/02/06 06:46:35;;;;;;;1.27;0.70;;;0.50;99.90;;;;;;5053490;28;20193;-71
2023/02/06 06:49:00;;;;;;;0.43;0.43;;;0.40;99.90;;;;;;5053487;28;20225;-72
2023/02/06 06:51:28;;;;;;;0.30;0.30;;;0.40;99.90;;;;;;5053309;28;20328;-71
2023/02/06 06:53:54;;;;;;;0.32;0.32;;;0.40;99.90;;;;;;5053116;28;20177;-71
2023/02/06 06:56:20;;;;;;;0.30;0.30;;;0.30;99.90;;;;;;5053639;28;20194;-70
2023/02/06 06:58:45;;;;;;;0.40;0.40;;;0.30;99.90;;;;;;5053407;28;20179;-70
2023/02/06 07:01:11;;;;;;;0.30;0.30;;;0.30;99.90;;;;;;5053343;28;20198;-71
2023/02/06 07:03:36;;;;;;;0.30;0.30;;;0.40;99.90;;;;;;5053143;28;20193;-71
2023/02/06 07:06:04;;;;;;;0.30;0.30;;;0.40;99.90;;;;;;5053109;28;20249;-72
2023/02/06 07:08:29;;;;;;;0.40;0.40;;;0.40;99.90;;;;;;5053332;28;20171;-70
2023/02/06 07:10:56;;;;;;;1.17;1.17;;;0.50;99.90;;;;;;5052981;28;20278;-72
2023/02/06 07:13:22;;;;;;;0.40;0.40;;;0.40;99.90;;;;;;5052928;28;20168;-72
2023/02/06 07:15:47;;;;;;;0.30;0.30;;;0.40;99.90;;;;;;5053137;28;20177;-70
2023/02/06 07:18:13;;;;;;;0.80;0.60;;;0.50;99.90;;;;;;5053324;28;20625;-70
2023/02/06 07:20:39;;;;;;;0.40;0.40;;;0.50;99.90;;;;;;5053141;28;20195;-71
2023/02/06 07:23:05;;;;;;;0.30;0.30;;;0.50;99.90;;;;;;5052387;28;20192;-72
2023/02/06 07:25:31;;;;;;;0.30;0.30;;;0.60;99.90;;;;;;5051497;28;20825;-71
2023/02/06 07:27:56;;;;;;;0.63;0.63;;;0.70;99.90;;;;;;5054097;28;20182;-72
2023/02/06 07:30:22;;;;;;;0.40;0.40;;;0.80;99.90;;;;;;5056973;28;20175;-71
2023/02/06 07:32:48;;;;;;;0.30;0.30;;;1.00;99.90;;;;;;5056695;28;20283;-70
2023/02/06 07:35:14;;;;;;;0.40;0.40;;;1.10;99.90;;;;;;5056677;28;20171;-72
2023/02/06 07:37:40;;;;;;;0.30;0.30;;;1.30;99.90;;;;;;5056571;28;20266;-72
2023/02/06 07:40:06;;;;;;;0.30;0.30;;;1.40;99.90;;;;;;5056198;28;20407;-70
2023/02/06 07:42:32;;;;;;;0.30;0.30;;;1.60;99.90;;;;;;5055496;28;20192;-70
2023/02/06 07:44:58;;;;;;;0.30;0.30;;;1.80;99.90;;;;;;5056645;28;20213;-71
2023/02/06 07:47:24;;;;;;;0.80;0.80;;;2.00;99.90;;;;;;5056712;28;20204;-71
2023/02/06 07:49:50;;;;;;;0.40;0.40;;;2.10;99.90;;;;;;5056636;28;20175;-71
2023/02/06 07:52:16;;;;;;;0.47;0.40;;;2.10;99.90;;;;;;5054833;28;20203;-71
2023/02/06 07:54:42;;;;;;;0.40;0.40;;;2.30;99.90;;;;;;5056405;28;20500;-71
2023/02/06 07:57:07;;;;;;;0.50;0.50;;;2.40;99.90;;;;;;5056474;28;20534;-72
2023/02/06 07:59:33;;;;;;;0.30;0.30;;;2.50;99.90;;;;;;5055020;28;20174;-73
2023/02/06 08:01:59;;;;;;;0.40;0.40;;;2.70;99.90;;;;;;5056017;28;20583;-73
2023/02/06 08:04:28;;;;;;;0.70;0.60;;;2.90;99.90;;;;;;5055625;28;20789;-73
2023/02/06 08:06:55;;;;;;;0.40;0.40;;;3.00;98.50;;;;;;5056079;28;20245;-74
2023/02/06 08:09:20;;;;;;;0.40;0.40;;;3.00;98.00;;;;;;5056331;28;20198;-74
2023/02/06 08:11:46;;;;;;;0.40;0.40;;;3.00;97.90;;;;;;5054580;28;20245;-74
2023/02/06 08:14:12;;;;;;;0.30;0.30;;;3.00;97.90;;;;;;5056397;28;20174;-73
2023/02/06 08:16:38;;;;;;;0.50;0.50;;;3.00;98.40;;;;;;5056615;28;20176;-74
2023/02/06 08:19:05;;;;;;;2.05;1.95;;;3.00;98.30;;;;;;5056354;28;20166;-73
2023/02/06 08:21:31;;;;;;;0.30;0.30;;;3.00;97.20;;;;;;5056189;28;20202;-73
2023/02/06 08:23:59;;;;;;;0.43;0.43;;;2.80;97.00;;;;;;5055920;28;20200;-74
2023/02/06 08:26:26;;;;;;;0.40;0.40;;;2.70;97.40;;;;;;5056088;28;20965;-73
2023/02/06 08:28:53;;;;;;;0.40;0.40;;;2.80;97.20;;;;;;5056385;28;20207;-74
2023/02/06 08:31:24;;;;;;;0.38;0.38;;;2.90;97.50;;;;;;5055994;28;20561;-74
2023/02/06 08:33:50;;;;;;;0.50;0.50;;;3.00;97.70;;;;;;5055614;28;20615;-73
2023/02/06 08:36:18;;;;;;;0.60;0.60;;;3.00;97.50;;;;;;5054360;28;20170;-74
2023/02/06 08:38:44;;;;;;;0.30;0.30;;;2.80;97.00;;;;;;5055397;28;20178;-74
2023/02/06 08:41:18;;;;;;;0.40;0.40;;;2.70;97.20;;;;;;5055671;28;20186;-74
2023/02/06 08:43:47;;;;;;;0.50;0.50;;;2.80;97.60;;;;;;5055999;28;20225;-73
2023/02/06 08:46:15;;;;;;;1.05;1.05;;;3.00;97.50;;;;;;5055436;28;20177;-73
2023/02/06 08:48:41;;;;;;;1.13;1.13;;;3.30;98.10;;;;;;5055617;28;20200;-75
2023/02/06 08:51:08;;;;;;;0.53;0.53;;;3.60;97.60;;;;;;5055441;28;20186;-73
2023/02/06 08:53:34;;;;;;;0.50;0.50;;;3.50;95.80;;;;;;5054036;28;20538;-72
2023/02/06 08:56:02;;;;;;;2.67;1.73;;;3.30;95.90;;;;;;5054216;28;20201;-73
2023/02/06 08:58:29;;;;;;;1.30;1.13;;;3.30;96.00;;;;;;5055260;28;20666;-73
2023/02/06 09:00:55;;;;;;;0.30;0.30;;;3.40;96.50;;;;;;5055437;28;20206;-72
2023/02/06 09:03:21;;;;;;;0.63;0.63;;;3.50;95.50;;;;;;5055182;28;20208;-73
2023/02/06 09:05:48;;;;;;;0.40;0.40;;;3.40;95.70;;;;;;5055395;28;20479;-71
2023/02/06 09:08:13;;;;;;;1.25;1.25;;;3.40;95.30;;;;;;5055136;28;20167;-72
2023/02/06 09:10:39;;;;;;;0.77;0.77;;;3.60;95.40;;;;;;5054730;28;20188;-71
2023/02/06 09:13:04;;;;;;;0.60;0.60;;;3.90;95.60;;;;;;5053725;28;20174;-71
2023/02/06 09:15:30;;;;;;;0.83;0.83;;;4.10;95.50;;;;;;5054776;28;20177;-72
2023/02/06 09:17:56;;;;;;;0.73;0.73;;;4.20;95.10;;;;;;5054895;28;20235;-72
2023/02/06 09:20:25;;;;;;;1.73;0.63;;;4.30;94.10;;;;;;5054769;28;20174;-72
2023/02/06 09:22:51;;;;;;;0.60;0.60;;;4.20;94.00;;;;;;5054495;28;20175;-71
2023/02/06 09:25:17;;;;;;;0.80;0.80;;;4.30;94.80;;;;;;5054909;28;20167;-71
2023/02/06 09:27:45;;;;;;;1.30;1.13;;;4.50;94.90;;;;;;5054744;28;20532;-72
2023/02/06 09:30:12;;;;;;;1.35;1.35;;;4.60;94.60;;;;;;5054617;28;20185;-72
2023/02/06 09:32:38;;;;;;;0.90;0.90;;;4.70;94.00;;;;;;5054352;28;20267;-72
2023/02/06 09:35:04;;;;;;;0.40;0.40;;;4.70;93.90;;;;;;5054619;28;20637;-72
2023/02/06 09:37:30;;;;;;;2.75;2.58;;;4.60;93.20;;;;;;5054493;28;20178;-71
2023/02/06 09:39:55;;;;;;;5.17;1.50;;;4.60;93.40;;;;;;5054587;28;20536;-71
2023/02/06 09:42:26;;;;;;;0.40;0.40;;;4.90;93.70;;;;;;5053956;28;20195;-72
2023/02/06 09:45:13;;;;;;;1.60;1.50;;;4.90;93.10;;;;;;5053628;28;20195;-72
2023/02/06 09:47:45;;;;;;;0.75;0.75;;;5.00;93.10;;;;;;5054503;28;20635;-69
2023/02/06 09:50:24;;;;;;;0.57;0.57;;;4.90;93.40;;;;;;5053950;28;20198;-69
2023/02/06 09:52:51;;;;;;;0.40;0.40;;;4.80;93.10;;;;;;5054059;28;20166;-70
2023/02/06 09:55:16;;;;;;;0.60;0.60;;;4.60;93.60;;;;;;5054526;28;20166;-69
2023/02/06 09:57:54;;;;;;;0.90;0.90;;;4.20;93.40;;;;;;5054355;28;20178;-72
2023/02/06 10:00:19;;;;;;;0.60;0.60;;;3.80;94.60;;;;;;5052059;28;20253;-72
2023/02/06 10:09:15;;;;;;;0.88;0.65;;;3.80;94.20;;;;;;5034550;28;20700;-69
2023/02/06 10:11:40;;;;;;;1.83;1.73;;;4.10;94.20;;;;;;5033428;28;20592;-69
2023/02/06 10:14:43;;;;;;;2.60;2.27;;;4.30;93.90;;;;;;5033952;28;20175;-69
2023/02/06 10:17:24;;;;;;;0.40;0.40;;;4.50;94.00;;;;;;5034095;28;20164;-69
2023/02/06 10:19:59;;;;;;;0.40;0.40;;;4.70;93.70;;;;;;5033628;28;20198;-69
2023/02/06 10:22:56;;;;;;;0.55;0.55;;;4.80;93.00;;;;;;5033762;28;20167;-69
2023/02/06 10:25:35;;;;;;;0.40;0.40;;;4.90;93.40;;;;;;5033458;28;20270;-69
2023/02/06 10:28:28;;;;;;;0.75;0.75;;;4.80;92.20;;;;;;5033911;28;20179;-69
2023/02/06 10:31:12;;;;;;;0.40;0.40;;;4.60;92.90;;;;;;5032587;28;20213;-69
2023/02/06 10:34:05;;;;;;;3.40;0.70;;;4.80;93.50;;;;;;5033605;28;20174;-69
2023/02/06 10:36:48;;;;;;;0.40;0.40;;;4.90;92.60;;;;;;5033370;28;20217;-69
2023/02/06 10:39:36;;;;;;;0.90;0.90;;;4.90;92.10;;;;;;5033564;28;20220;-69
2023/02/06 10:42:52;;;;;;;0.40;0.40;;;4.90;92.60;;;;;;5033489;28;20167;-69
2023/02/06 10:45:32;;;;;;;0.93;0.63;;;5.00;92.40;;;;;;5024087;28;20285;-69
2023/02/06 10:48:14;;;;;;;0.40;0.40;;;5.00;92.60;;;;;;5033691;28;20228;-69
2023/02/06 10:50:51;;;;;;;1.38;1.33;;;5.10;91.50;;;;;;5033563;28;20271;-69
2023/02/06 10:53:19;;;;;;;0.40;0.40;;;4.90;91.30;;;;;;5033643;28;20305;-69
2023/02/06 10:55:54;;;;;;;0.60;0.60;;;4.70;91.20;;;;;;5033203;28;20164;-69
2023/02/06 10:58:35;;;;;;;1.30;0.60;;;4.60;91.50;;;;;;5033566;28;20250;-69
2023/02/06 11:01:03;;;;;;;0.80;0.80;;;4.50;93.70;;;;;;5033682;28;20562;-69
2023/02/06 11:03:30;;;;;;;0.40;0.40;;;4.80;94.00;;;;;;5037219;28;20203;-69
2023/02/06 11:05:57;;;;;;;0.50;0.50;;;6.00;92.00;;;;;;5037318;28;20170;-70
2023/02/06 11:08:32;;;;;;;1.17;1.13;;;6.90;88.30;;;;;;5037388;28;20631;-69
2023/02/06 11:11:19;;;;;;;0.70;0.70;;;6.30;86.60;;;;;;5036035;28;20225;-69
2023/02/06 11:13:51;;;;;;;0.70;0.70;;;6.40;88.70;;;;;;5037172;28;20193;-69
2023/02/06 11:16:24;;;;;;;0.38;0.38;;;6.10;87.40;;;;;;5037157;28;20182;-69
2023/02/06 11:18:52;;;;;;;1.45;1.35;;;5.80;88.30;;;;;;5035852;28;20567;-69
2023/02/06 11:21:39;;;;;;;1.13;1.00;;;6.00;89.70;;;;;;5037200;28;20193;-69
2023/02/06 11:24:10;;;;;;;0.65;0.65;;;6.00;90.00;;;;;;5037040;28;20277;-69
2023/02/06 11:26:49;;;;;;;0.77;0.77;;;5.90;88.70;;;;;;5036926;28;20540;-69
2023/02/06 11:29:23;;;;;;;0.30;0.30;;;5.60;86.90;;;;;;5035892;28;20167;-70
2023/02/06 11:31:58;;;;;;;0.40;0.40;;;5.10;86.20;;;;;;5036909;28;20513;-70
2023/02/06 11:34:36;;;;;;;0.40;0.40;;;4.40;88.50;;;;;;5036950;28;20178;-70
2023/02/06 11:37:29;;;;;;;0.40;0.40;;;4.00;90.50;;;;;;5037136;28;20175;-70
2023/02/06 11:40:15;;;;;;;0.40;0.40;;;4.20;90.50;;;;;;5036758;28;20553;-70
2023/02/06 11:42:41;;;;;;;0.40;0.40;;;4.50;91.10;;;;;;5036753;28;20532;-70
2023/02/06 11:45:39;;;;;;;1.00;1.00;;;4.90;90.70;;;;;;5036504;28;20203;-70
2023/02/06 11:48:06;;;;;;;0.30;0.30;;;5.20;90.20;;;;;;5024711;28;20459;-70
2023/02/06 11:50:36;;;;;;;1.60;1.55;;;5.20;87.60;;;;;;5035497;28;20716;-70
2023/02/06 11:53:13;;;;;;;0.95;0.77;;;5.10;88.20;;;;;;5036497;28;20654;-70
2023/02/06 11:55:41;;;;;;;0.30;0.30;;;5.50;90.40;;;;;;5036548;28;20217;-70
2023/02/06 11:58:13;;;;;;;1.15;0.47;;;5.80;89.90;;;;;;5036533;28;20647;-70
2023/02/06 12:00:53;;;;;;;0.40;0.40;;;5.90;87.70;;;;;;5036039;28;20334;-70
2023/02/06 12:03:29;;;;;;;0.70;0.70;;;5.90;87.10;;;;;;5036509;28;20612;-70
2023/02/06 12:06:02;;;;;;;0.50;0.50;;;5.90;88.20;;;;;;5036662;28;20222;-70
2023/02/06 12:08:48;;;;;;;0.40;0.40;;;5.70;87.80;;;;;;5036882;28;20173;-70
2023/02/06 12:11:33;;;;;;;1.00;1.00;;;5.80;87.90;;;;;;5036767;28;20197;-71
2023/02/06 12:14:15;;;;;;;0.60;0.60;;;6.00;88.80;;;;;;5035884;28;20188;-70
2023/02/06 12:16:46;;;;;;;0.60;0.60;;;6.30;89.60;;;;;;5036349;28;20178;-70
2023/02/06 12:19:18;;;;;;;0.60;0.60;;;6.60;88.30;;;;;;5036545;28;20615;-70
2023/02/06 12:21:52;;;;;;;0.70;0.70;;;6.70;87.50;;;;;;5036706;28;20201;-70
2023/02/06 12:24:30;;;;;;;0.73;0.52;;;7.00;86.50;;;;;;5036436;28;20213;-70
2023/02/06 12:26:59;;;;;;;2.17;1.23;;;7.20;83.50;;;;;;5036118;28;20177;-71
2023/02/06 12:29:33;;;;;;;0.50;0.50;;;7.50;82.80;;;;;;5036251;28;20175;-70
2023/02/06 12:32:25;;;;;;;0.63;0.63;;;7.40;82.90;;;;;;5036335;28;20162;-71
2023/02/06 12:34:59;;;;;;;0.73;0.73;;;7.30;85.70;;;;;;5033803;28;20185;-71
2023/02/06 12:37:47;;;;;;;1.08;0.80;;;7.20;84.20;;;;;;5036052;28;20216;-72
2023/02/06 12:40:25;;;;;;;0.70;0.70;;;7.20;85.10;;;;;;5035932;28;20194;-72
2023/02/06 12:42:59;;;;;;;0.70;0.70;;;7.10;85.10;;;;;;5035710;28;20178;-71
2023/02/06 12:45:51;;;;;;;0.63;0.50;;;7.10;86.90;;;;;;5035672;28;20184;-72
2023/02/06 12:48:34;;;;;;;0.50;0.50;;;7.20;85.70;;;;;;5036212;28;20177;-71
2023/02/06 12:51:19;;;;;;;6.53;2.60;;;7.20;82.60;;;;;;5034412;28;20284;-71
2023/02/06 12:53:50;;;;;;;1.10;1.10;;;7.10;81.70;;;;;;5035745;28;20174;-72
2023/02/06 12:56:40;;;;;;;0.65;0.65;;;7.00;81.00;;;;;;5035679;28;20217;-72
2023/02/06 12:59:09;;;;;;;0.40;0.40;;;6.70;78.80;;;;;;5035995;28;20170;-72
2023/02/06 13:01:47;;;;;;;1.30;1.20;;;6.50;81.10;;;;;;5034668;28;20197;-72
2023/02/06 13:04:22;;;;;;;0.50;0.50;;;6.60;80.70;;;;;;5035446;28;20197;-72
2023/02/06 13:07:06;;;;;;;1.20;1.20;;;6.50;82.20;;;;;;5035489;28;20171;-72
2023/02/06 13:09:48;;;;;;;1.25;1.13;;;6.40;81.00;;;;;;5035804;28;20182;-71
2023/02/06 13:12:25;;;;;;;1.20;1.15;;;6.20;81.80;;;;;;5035005;28;20192;-72
2023/02/06 13:15:22;;;;;;;0.75;0.50;;;6.10;82.20;;;;;;5035230;28;20183;-72
2023/02/06 13:17:50;;;;;;;0.90;0.90;;;6.10;84.50;;;;;;5035059;28;20218;-69
2023/02/06 13:20:18;;;;;;;0.75;0.75;;;6.00;83.70;;;;;;5035377;28;20193;-69